Hors Challenge

Les Trail & Jogging De L'Hermeton - Romedenne (29.00 km)

samedi 10 juillet 2021

Vous pouvez trouver Le classement original sur : http://ultratiming.be
 
LES TRAIL & JOGGING DE L'HERMETON - ROMEDENNE
DISTANCE 29.00 km
samedi 10 juillet 2021
 
Place Dos NOM Equipe Catégorie Pl/cat Temps Temps/km Vitesse
01:00:00                
1 400 RENARD ARNAUD - SEH 1 2:10:40 04:30 13.32
2 395 PAHOS ANDREAS RUNEXPERT TEAM SEH 2 2:15:30 04:40 12.84
3 6222 DELATTRE LOUIS - SEH 3 2:24:26 04:59 12.05
4 6299 VYVEY WANNES - SEH 4 2:24:38 04:59 12.03
5 6294 VAN NIEUWENHOVE TANGUY ACCO SEH 5 2:26:55 05:04 11.84
6 393 MAHIA SEBASTIEN RUN ATTITUDE SEH 6 2:27:17 05:05 11.81
7 6241 GEORGES BENOIT - V1H 1 2:28:56 05:08 11.68
8 6234 DULON OLIVIER - V2H 1 2:37:28 05:26 11.05
9 6221 DEGREZ FRANÇOIS - SEH 7 2:38:34 05:28 10.97
10 6269 MINET DENIS VIR"O"SPORT V2H 2 2:39:17 05:30 10.92
11 6278 PECKEL LAURENT - SEH 8 2:42:32 05:36 10.71
12 6290 TELER MATHIEU - SEH 9 2:47:28 05:46 10.39
13 6238 FRANCOIS HERVE - SEH 10 2:48:04 05:48 10.35
14 6237 FRANCOIS RAPHAEL - CAH 1 2:48:05 05:48 10.35
15 6249 HUBEAUX DENIS BIESME V1H 2 2:48:20 05:48 10.34
16 6212 CHAPUIS FABIEN ECLATES PERUWEL V2H 3 2:48:56 05:50 10.30
17 6277 PAULUS DAVID - V1H 3 2:51:36 05:55 10.14
18 6260 LOSSEAU GUILLAUME - SEH 11 2:52:24 05:57 10.09
19 6220 DEDOCQ SÉBASTIEN - SEH 12 2:54:09 06:00 9.99
20 396 MARCHI STÉPHANE SERIALTRAILEUR V1H 4 2:56:39 06:05 9.85
21 6206 BOECKMANS DAMIEN ENDURANCE TEAM SEH 13 2:59:16 06:11 9.71
22 6243 HALATYN NICOLAS - V1H 5 2:59:41 06:12 9.68
23 6214 COROUGE CHRISTOPHE - V1H 6 3:00:58 06:14 9.62
24 6205 BLAVIER MATHIEU - SEH 14 3:02:59 06:19 9.51
25 6274 OGER STEPHAN - V1H 7 3:03:01 06:19 9.51
26 6244 HANOULLE RÉMY - SEH 15 3:04:06 06:21 9.45
27 6297 VERBRUGGEN YVES - SEH 16 3:04:23 06:21 9.44
28 6296 VANDENDRIESSCHE ARNAUD - V1H 8 3:04:25 06:22 9.44
29 6262 MARCHAND QUENTIN JCOURPOURLAPÉRO V1H 9 3:05:02 06:23 9.40
30 6226 DENDAL DIDIER - V2H 4 3:08:10 06:29 9.25
31 6209 BRIX NICOLAS CONSTANT VEGAN RUNNERS U SEH 17 3:08:33 06:30 9.23
32 6245 HAVRENNE JONATHAN DUCELLI RUNNING SEH 18 3:08:47 06:31 9.22
33 6239 GAILLET OLIVIER - SEH 19 3:11:20 06:36 9.09
34 6211 CERQUEIRA HADRIEN - SEH 20 3:12:50 06:39 9.02
35 6285 SCAILLET VINCENT HASTRAIL V2H 5 3:14:42 06:43 8.94
36 6236 FOSSION CHARLTON CHICKEN RUN SEH 21 3:15:12 06:44 8.91
37 6268 MIÉVIS KEVIN JCPMF ROCOURT SEH 22 3:16:42 06:47 8.85
38 6247 HOSSELET KEVIN TEAM TRAIL SING SEH 23 3:17:09 06:48 8.83
39 6230 DIERYCK PASCAL - V2H 6 3:17:19 06:48 8.82
40 6288 SZUSTAK MATHIEU - SEH 24 3:18:52 06:51 8.75
41 6204 BIERWISCH JEAN-MICHEL - V1H 10 3:20:31 06:55 8.68
42 6286 SCHOLLAERT GEOFFREY DJIM RUNNING CL V1H 11 3:22:40 06:59 8.59
43 6242 GHEURY PHILIPPE SER ATHL V1H 12 3:22:51 07:00 8.58
44 6229 DEWIT RAYMOND - V2H 7 3:23:57 07:02 8.53
45 6208 BOUTY XAVIER HERHETEAM V2H 8 3:24:09 07:02 8.52
46 6265 MARTINOT SANDRINE BORN TO RUN V1F 1 3:24:32 07:03 8.51
47 6207 BONJEAN ANTOINE AMBA SEH 25 3:25:27 07:05 8.47
48 6217 DEBAISE PASCAL - V2H 9 3:25:48 07:06 8.45
49 6248 HOUSSA MAXIME KCWR SEH 26 3:26:59 07:08 8.41
50 6225 DEMOULIN BRIGITTE RCNAMUR CAPTRAI V3F 1 3:29:23 07:13 8.31
51 6215 CREVE ARNO - SEH 27 3:30:15 07:15 8.28
52 6202 BAUDEAU JULIEN - V1H 13 3:31:33 07:18 8.23
53 6223 DELCHAMBRE KEVIN - SEH 28 3:32:33 07:20 8.19
54 6227 DENISON LOGAN FLAVION-MORIALM SEH 29 3:34:24 07:24 8.12
55 6256 LIXANDRU ANDREI - V1H 14 3:34:36 07:24 8.11
56 6246 HERMAND VANESSA CAP BEAURAING V1F 2 3:37:24 07:30 8.00
57 6258 LOPPE AXEL - SEH 30 3:39:36 07:34 7.92
58 6259 LORAND JEAN-FRANÇOIS - V1H 15 3:39:36 07:34 7.92
59 397 HUPPERTZ GAETAN BIOTRAIL V1H 16 3:40:01 07:35 7.91
60 6240 GEERTS SEBASTIEN OBJ V1H 17 3:40:27 07:36 7.89
61 6210 BURNIAUX FRANÇOIS - SEH 31 3:41:09 07:38 7.87
62 6298 VOLINO FABRIZIO - V1H 18 3:42:05 07:39 7.83
63 6279 PIACENTINI MARCO ESM V3H 1 3:43:02 07:41 7.80
64 6253 LEHANNE ERIC - V1H 19 3:47:01 07:50 7.66
65 6255 LEONI MURIEL - V1F 3 3:48:12 07:52 7.62
66 398 PORTA JULIEN - V1H 20 3:49:07 07:54 7.59
67 6216 DE CREMER KRIS MATERRUNNERS V2H 10 3:50:19 07:57 7.55
68 6270 MOORS THIERRY SPORTEX V2H 11 3:53:20 08:03 7.46
69 6267 MATHIEU JACQUES RUN?HEURE V2H 12 3:53:37 08:03 7.45
70 6264 MARMIGNON ARY RUN'HEURE SEH 32 3:53:38 08:03 7.45
71 6280 PLAQUET QUENTIN LE BER V3H 2 3:54:49 08:06 7.41
72 6228 DEWANDEL LAURENT ZONARDS V2H 13 3:55:03 08:06 7.40
73 6295 VANBLAERE FREDERIC JAMES V2H 14 3:56:14 08:09 7.37
74 6276 PAULET AXEL SPORTEX FAMILY SEH 33 3:56:15 08:09 7.37
75 394 PIEARET DIDIER - V2H 15 3:57:07 08:11 7.34
76 6201 BASSINE PHILIPPE - V2H 16 3:58:51 08:14 7.28
77 6287 SONET RENAUD BORN TO RUN V1H 21 3:59:04 08:15 7.28
78 6292 THIRY GEOFFREY - V1H 22 3:59:32 08:16 7.26
79 6250 IBOUDGHACEN BRAHIM - SEH 34 4:00:50 08:18 7.22
80 6283 PONSELET JONAS - SEH 35 4:04:15 08:25 7.12
81 6235 DUPUIS YVES RUN'HEURE V1H 23 4:08:53 08:35 6.99
82 6263 MARLIER STÉPHANE - SEH 36 4:11:13 08:40 6.93
83 6300 WITRY JEAN - SEH 37 4:21:05 09:00 6.66
84 6261 MANIL MELANIE - SEF 1 4:21:19 09:01 6.66
85 6281 PLUMET WILLIAM 3T V4H 1 4:27:59 09:14 6.49
86 6272 MOUYART PHILIPPE - V2H 17 4:28:00 09:14 6.49
87 6213 COPET FABIAN MA&VA V1H 24 4:32:47 09:24 6.38
88 6275 PATTYN BÉATRICE - V2F 1 4:43:31 09:47 6.14
89 6252 LACROIX BERNARD - V4H 2 4:45:17 09:50 6.10
                 
Nos dernières videos